KRNT

Renton Municipal Airport

Renton, Washington, USA
METAR KRNT 162353Z 19004KT 8SM -RA FEW029 OVC045 11/08 A2968 RMK AO2 SLP057 P0001 60001 T01060078 10133 20106 53030
Observed Flight Rules
Dec-16 @ 23:53 UTC (31 minutes ago) Visual Flight Rules
Wind Visibility Clouds Conditions
190° at 4 knots 8 miles
  • Few at 2,900' AGL
  • Overcast at 4,500' AGL
  • Light Rain
Temperatures Readings Precipitation
Current 11°C / 52°F
Dewpoint 8°C / 46°F
Humidity 82%
Altimeter 29.68" Hg
Pressure 1005.7 hPa
Elevation 21
Current Rain 0.01
METAR KRNT 162353Z 19004KT 8SM -RA FEW029 OVC045 11/08 A2968 RMK AO2 SLP057 P0001 60001 T01060078 10133 20106 53030
Observed Flight Rules
Dec-16 @ 23:53 UTC
(31 minutes ago)
VFR
Wind Visibility
190° at 4 knots 8 miles
Clouds
  • Few at 2,900' AGL
  • Overcast at 4,500' AGL
Conditions
  • Light Rain
Temperature Dewpoint
11°C / 52°F 8°C / 46°F
Humidity Altimeter Pressure
82% 29.68" Hg 1005.7 hPa
Current Rain
0.01